createdAt,value
2022-12-01T00:00:34.653Z,56.39
2022-12-01T00:03:38.924Z,56.61
2022-12-01T00:06:42.490Z,56.98
2022-12-01T00:10:04.357Z,57.16
2022-12-01T00:13:08.471Z,57.19
2022-12-01T00:16:13.967Z,57.42
2022-12-01T00:19:18.613Z,57.56
2022-12-01T00:22:22.156Z,57.70
2022-12-01T00:25:28.999Z,57.84
2022-12-01T00:28:32.871Z,57.87
2022-12-01T00:31:37.374Z,57.70
2022-12-01T00:34:41.289Z,57.66
2022-12-01T00:37:45.354Z,57.13
2022-12-01T00:40:49.026Z,56.79
2022-12-01T00:43:52.599Z,56.29
2022-12-01T00:46:56.231Z,56.00
2022-12-01T00:50:00.206Z,55.96
2022-12-01T00:53:03.937Z,56.19
2022-12-01T00:56:08.400Z,55.78
2022-12-01T00:59:12.636Z,55.45
2022-12-01T01:02:16.614Z,55.31
2022-12-01T01:05:19.587Z,55.13
2022-12-01T01:08:22.924Z,55.27
2022-12-01T01:11:26.717Z,55.04
2022-12-01T01:14:30.858Z,54.93
2022-12-01T01:17:34.645Z,55.16
2022-12-01T01:20:39.356Z,55.66
2022-12-01T01:23:42.956Z,56.02
2022-12-01T01:26:47.848Z,56.26
2022-12-01T01:29:51.524Z,56.20
2022-12-01T01:32:55.530Z,55.78
2022-12-01T01:36:03.108Z,55.63
2022-12-01T01:39:06.587Z,55.28
2022-12-01T01:42:14.591Z,55.03
2022-12-01T01:45:24.460Z,54.04
2022-12-01T01:48:28.041Z,53.36
2022-12-01T01:51:36.709Z,53.81
2022-12-01T01:54:47.970Z,53.51
2022-12-01T01:57:52.217Z,53.31
2022-12-01T02:00:56.358Z,53.41
2022-12-01T02:04:00.379Z,53.69
2022-12-01T02:07:04.086Z,53.30
2022-12-01T02:10:11.959Z,52.63
2022-12-01T02:13:34.641Z,51.33
2022-12-01T02:17:22.444Z,50.85
2022-12-01T02:21:03.174Z,51.29
2022-12-01T02:24:43.174Z,51.56
2022-12-01T02:28:08.288Z,51.20
2022-12-01T02:31:26.467Z,50.03
2022-12-01T02:34:41.626Z,50.48
2022-12-01T02:38:04.112Z,50.59
2022-12-01T02:41:39.570Z,50.26
2022-12-01T02:44:45.918Z,49.94
2022-12-01T02:47:52.902Z,48.29
2022-12-01T02:51:00.533Z,48.46
2022-12-01T02:54:05.943Z,47.46
2022-12-01T02:57:13.268Z,46.55
2022-12-01T03:00:18.634Z,45.85
2022-12-01T03:04:03.213Z,45.86
2022-12-01T03:07:21.247Z,45.53
2022-12-01T03:10:36.341Z,44.52
2022-12-01T03:13:52.094Z,45.03
2022-12-01T03:16:55.595Z,44.59
2022-12-01T03:20:12.282Z,44.76
2022-12-01T03:23:24.815Z,44.55
2022-12-01T03:26:31.893Z,45.37
2022-12-01T03:29:44.308Z,45.88
2022-12-01T03:32:58.140Z,45.64
2022-12-01T03:36:07.063Z,44.63
2022-12-01T03:39:17.169Z,44.70
2022-12-01T03:42:55.239Z,44.71
2022-12-01T03:46:07.869Z,45.05
2022-12-01T03:49:12.446Z,44.52
2022-12-01T03:53:06.826Z,44.37
2022-12-01T03:56:11.623Z,44.20
2022-12-01T03:59:18.536Z,44.23
2022-12-01T04:02:21.991Z,43.74
2022-12-01T04:05:27.204Z,44.01
2022-12-01T04:08:31.315Z,44.23
2022-12-01T04:11:52.946Z,44.43
2022-12-01T04:14:59.178Z,44.37
2022-12-01T04:18:02.104Z,44.85
2022-12-01T04:21:05.609Z,44.41
2022-12-01T04:24:09.348Z,44.12
2022-12-01T04:27:13.648Z,44.29
2022-12-01T04:30:17.575Z,44.71
2022-12-01T04:33:21.586Z,44.75
2022-12-01T04:36:26.430Z,44.39
2022-12-01T04:39:30.047Z,44.25
2022-12-01T04:42:33.798Z,44.21
2022-12-01T04:45:38.815Z,44.49
2022-12-01T04:48:42.599Z,43.62
2022-12-01T04:51:46.378Z,44.32
2022-12-01T04:54:50.095Z,44.43
2022-12-01T04:57:54.004Z,44.38
2022-12-01T05:01:05.886Z,43.86
2022-12-01T05:04:13.389Z,43.98
2022-12-01T05:07:16.409Z,44.02
2022-12-01T05:10:19.621Z,44.54
2022-12-01T05:13:22.614Z,45.30
2022-12-01T05:16:28.520Z,45.19
2022-12-01T05:19:50.190Z,44.77
2022-12-01T05:23:05.366Z,44.82
2022-12-01T05:26:10.512Z,45.18
2022-12-01T05:29:14.840Z,44.96
2022-12-01T05:32:19.119Z,44.48
2022-12-01T05:35:21.994Z,45.13
2022-12-01T05:38:25.365Z,46.13
2022-12-01T05:41:28.343Z,45.79
2022-12-01T05:44:32.436Z,45.40
2022-12-01T05:47:35.355Z,45.53
2022-12-01T05:50:40.729Z,45.75
2022-12-01T05:53:49.110Z,46.73
2022-12-01T05:56:53.036Z,47.34
2022-12-01T05:59:56.809Z,48.04
2022-12-01T06:03:00.952Z,48.14
2022-12-01T06:06:04.699Z,48.69
2022-12-01T06:09:09.239Z,49.30
2022-12-01T06:12:12.305Z,50.26
2022-12-01T06:15:15.713Z,51.18
2022-12-01T06:18:19.423Z,51.44
2022-12-01T06:21:23.419Z,51.00
2022-12-01T06:24:27.169Z,51.31
2022-12-01T06:27:30.780Z,48.94
2022-12-01T06:30:34.462Z,49.11
2022-12-01T06:33:37.844Z,48.78
2022-12-01T06:36:41.195Z,46.61
2022-12-01T06:39:44.590Z,46.62
2022-12-01T06:42:47.518Z,46.51
2022-12-01T06:45:54.117Z,45.74
2022-12-01T06:49:00.865Z,45.63
2022-12-01T06:52:05.190Z,46.05
2022-12-01T06:55:09.063Z,46.67
2022-12-01T06:58:13.217Z,46.35
2022-12-01T07:01:17.617Z,46.06
2022-12-01T07:04:20.899Z,45.79
2022-12-01T07:07:24.882Z,45.58
2022-12-01T07:10:29.011Z,45.69
2022-12-01T07:13:33.961Z,45.91
2022-12-01T07:16:37.079Z,45.73
2022-12-01T07:19:40.296Z,46.04
2022-12-01T07:22:43.935Z,45.85
2022-12-01T07:25:48.021Z,45.58
2022-12-01T07:28:50.926Z,45.54
2022-12-01T07:31:54.254Z,45.31
2022-12-01T07:34:57.177Z,45.52
2022-12-01T07:38:01.114Z,45.69
2022-12-01T07:41:10.844Z,45.57
2022-12-01T07:44:17.244Z,45.58
2022-12-01T07:47:20.898Z,45.46
2022-12-01T07:50:24.218Z,46.13
2022-12-01T07:53:27.239Z,47.06
2022-12-01T07:56:30.685Z,47.81
2022-12-01T07:59:33.665Z,47.97
2022-12-01T08:02:37.426Z,48.46
2022-12-01T08:05:41.798Z,48.50
2022-12-01T08:08:45.770Z,49.07
2022-12-01T08:11:49.715Z,49.13
2022-12-01T08:14:52.605Z,49.25
2022-12-01T08:17:55.947Z,49.60
2022-12-01T08:20:59.561Z,49.65
2022-12-01T08:24:03.283Z,49.74
2022-12-01T08:27:07.064Z,49.49
2022-12-01T08:30:10.843Z,49.21
2022-12-01T08:33:14.596Z,49.00
2022-12-01T08:36:19.590Z,49.24
2022-12-01T08:39:22.603Z,49.51
2022-12-01T08:42:26.295Z,48.83
2022-12-01T08:45:29.623Z,48.97
2022-12-01T08:48:33.226Z,49.49
2022-12-01T08:51:37.057Z,49.27
2022-12-01T08:54:40.732Z,49.69
2022-12-01T08:57:43.885Z,50.04
2022-12-01T09:00:46.843Z,51.36
2022-12-01T09:04:06.204Z,52.59
2022-12-01T09:07:13.075Z,53.74
2022-12-01T09:10:16.491Z,54.36
2022-12-01T09:13:20.320Z,55.01
2022-12-01T09:16:24.129Z,55.31
2022-12-01T09:19:29.518Z,55.69
2022-12-01T09:22:32.469Z,55.85
2022-12-01T09:25:36.536Z,55.75
2022-12-01T09:28:40.241Z,55.83
2022-12-01T09:31:44.700Z,55.63
2022-12-01T09:34:48.637Z,56.17
2022-12-01T09:37:52.296Z,56.67
2022-12-01T09:40:57.588Z,56.78
2022-12-01T09:44:28.722Z,57.42
2022-12-01T09:47:36.699Z,57.95
2022-12-01T09:50:40.279Z,59.17
2022-12-01T09:53:45.108Z,60.32
2022-12-01T09:56:53.537Z,60.92
2022-12-01T09:59:58.831Z,62.19
2022-12-01T10:03:20.685Z,62.57
2022-12-01T10:06:49.965Z,63.00
2022-12-01T10:10:05.167Z,63.25
2022-12-01T10:13:38.032Z,63.74
2022-12-01T10:16:53.211Z,64.00
2022-12-01T10:20:10.186Z,63.87
2022-12-01T10:23:15.755Z,63.78
2022-12-01T10:26:32.122Z,64.42
2022-12-01T10:30:03.821Z,64.14
2022-12-01T10:33:33.473Z,64.19
2022-12-01T10:36:36.827Z,64.46
2022-12-01T10:39:48.196Z,64.76
2022-12-01T10:42:52.361Z,64.70
2022-12-01T10:45:57.667Z,64.62
2022-12-01T10:49:07.838Z,64.84
2022-12-01T10:52:34.048Z,64.78
2022-12-01T10:55:44.884Z,64.70
2022-12-01T10:58:55.030Z,64.73
2022-12-01T11:02:00.400Z,64.45
2022-12-01T11:05:20.098Z,64.20
2022-12-01T11:08:32.068Z,64.16
2022-12-01T11:11:40.865Z,64.04
2022-12-01T11:14:48.961Z,64.01
2022-12-01T11:18:01.388Z,63.78
2022-12-01T11:21:24.582Z,63.57
2022-12-01T11:24:44.863Z,63.69
2022-12-01T11:27:58.095Z,63.24
2022-12-01T11:31:08.666Z,63.15
2022-12-01T11:34:30.450Z,62.64
2022-12-01T11:38:21.148Z,62.33
2022-12-01T11:41:30.421Z,61.76
2022-12-01T11:44:50.973Z,61.55
2022-12-01T11:48:27.491Z,61.39
2022-12-01T11:51:38.889Z,61.21
2022-12-01T11:54:59.372Z,60.75
2022-12-01T11:58:05.086Z,60.42
2022-12-01T12:01:39.397Z,60.09
2022-12-01T12:04:58.307Z,59.60
2022-12-01T12:08:12.640Z,59.44
2022-12-01T12:11:20.650Z,59.37
2022-12-01T12:14:32.288Z,58.87
2022-12-01T12:18:00.742Z,58.87
2022-12-01T12:21:14.767Z,58.82
2022-12-01T12:24:37.055Z,59.19
2022-12-01T12:27:47.860Z,59.20
2022-12-01T12:31:06.699Z,59.10
2022-12-01T12:34:24.167Z,59.20
2022-12-01T12:37:44.453Z,59.62
2022-12-01T12:40:57.372Z,59.78
2022-12-01T12:44:39.903Z,59.72
2022-12-01T12:47:55.835Z,60.07
2022-12-01T12:51:18.510Z,60.04
2022-12-01T12:54:28.731Z,60.24
2022-12-01T12:57:44.585Z,60.34
2022-12-01T13:01:12.582Z,60.62
2022-12-01T13:04:28.126Z,60.91
2022-12-01T13:07:38.927Z,61.17
2022-12-01T13:11:11.136Z,61.19
2022-12-01T13:14:27.102Z,61.63
2022-12-01T13:17:44.568Z,61.61
2022-12-01T13:20:48.082Z,61.77
2022-12-01T13:23:53.350Z,61.94
2022-12-01T13:27:10.906Z,62.52
2022-12-01T13:30:26.514Z,63.09
2022-12-01T13:33:30.397Z,63.19
2022-12-01T13:36:50.188Z,63.42
2022-12-01T13:39:55.996Z,63.53
2022-12-01T13:43:10.701Z,63.82
2022-12-01T13:46:23.843Z,63.99
2022-12-01T13:49:45.810Z,64.09
2022-12-01T13:52:51.168Z,64.45
2022-12-01T13:56:04.411Z,65.00
2022-12-01T14:00:03.866Z,65.46
2022-12-01T14:03:18.074Z,66.00
2022-12-01T14:06:32.195Z,66.39
2022-12-01T14:09:41.912Z,66.54
2022-12-01T14:12:47.023Z,66.61
2022-12-01T14:15:57.590Z,66.62
2022-12-01T14:19:01.015Z,66.52
2022-12-01T14:22:07.102Z,66.36
2022-12-01T14:25:23.037Z,66.63
2022-12-01T14:29:01.588Z,67.04
2022-12-01T14:32:09.116Z,67.55
2022-12-01T14:35:14.890Z,67.77
2022-12-01T14:38:18.874Z,68.17
2022-12-01T14:41:26.336Z,67.93
2022-12-01T14:44:54.697Z,68.33
2022-12-01T14:48:07.376Z,68.81
2022-12-01T14:51:23.213Z,68.90
2022-12-01T14:54:49.120Z,68.87
2022-12-01T14:58:07.773Z,68.96
2022-12-01T15:01:13.922Z,68.87
2022-12-01T15:04:17.813Z,68.23
2022-12-01T15:07:23.965Z,67.59
2022-12-01T15:10:35.819Z,67.73
2022-12-01T15:13:54.461Z,68.10
2022-12-01T15:16:58.552Z,66.95
2022-12-01T15:20:03.011Z,66.41
2022-12-01T15:23:15.304Z,64.36
2022-12-01T15:26:21.685Z,61.74
2022-12-01T15:29:33.835Z,61.33
2022-12-01T15:32:43.623Z,60.92
2022-12-01T15:35:48.122Z,59.72
2022-12-01T15:38:55.074Z,59.88
2022-12-01T15:41:59.454Z,59.24
2022-12-01T15:45:25.726Z,58.92
2022-12-01T15:48:33.678Z,58.21
2022-12-01T15:51:37.156Z,57.55
2022-12-01T15:54:41.443Z,56.93
2022-12-01T15:57:48.960Z,55.64
2022-12-01T16:01:05.547Z,55.52
2022-12-01T16:04:24.256Z,54.64
2022-12-01T16:08:12.271Z,53.57
2022-12-01T16:11:22.761Z,53.26
2022-12-01T16:14:27.302Z,52.66
2022-12-01T16:17:45.419Z,52.04
2022-12-01T16:20:53.440Z,52.11
2022-12-01T16:24:08.821Z,52.20
2022-12-01T16:27:35.788Z,52.37
2022-12-01T16:30:46.522Z,52.40
2022-12-01T16:34:30.579Z,52.77
2022-12-01T16:37:38.503Z,53.15
2022-12-01T16:40:55.154Z,53.74
2022-12-01T16:44:29.490Z,53.95
2022-12-01T16:47:41.652Z,54.10
2022-12-01T16:50:54.264Z,53.69
2022-12-01T16:54:09.271Z,53.65
2022-12-01T16:57:21.976Z,53.80
2022-12-01T17:00:35.802Z,53.66
2022-12-01T17:03:46.980Z,54.04
2022-12-01T17:06:57.765Z,54.44
2022-12-01T17:10:10.160Z,54.64
2022-12-01T17:13:18.433Z,54.87
2022-12-01T17:16:22.117Z,55.10
2022-12-01T17:19:27.149Z,55.31
2022-12-01T17:22:31.163Z,55.14
2022-12-01T17:25:35.255Z,55.23
2022-12-01T17:28:39.762Z,55.08
2022-12-01T17:31:44.304Z,55.13
2022-12-01T17:34:48.453Z,55.29
2022-12-01T17:37:52.530Z,55.26
2022-12-01T17:41:05.233Z,55.29
2022-12-01T17:44:19.811Z,55.34
2022-12-01T17:47:31.919Z,55.43
2022-12-01T17:50:43.347Z,55.04
2022-12-01T17:53:56.747Z,54.77
2022-12-01T17:57:09.902Z,54.41
2022-12-01T18:00:26.791Z,53.45
2022-12-01T18:03:38.274Z,52.48
2022-12-01T18:06:54.320Z,51.86
2022-12-01T18:10:06.697Z,50.95
2022-12-01T18:13:19.348Z,51.92
2022-12-01T18:16:35.991Z,53.80
2022-12-01T18:19:47.418Z,53.90
2022-12-01T18:22:59.712Z,54.29
2022-12-01T18:26:16.215Z,54.12
2022-12-01T18:29:34.479Z,54.55
2022-12-01T18:32:45.746Z,53.81
2022-12-01T18:35:57.135Z,53.22
2022-12-01T18:39:08.839Z,53.32
2022-12-01T18:42:19.389Z,52.69
2022-12-01T18:45:32.018Z,51.94
2022-12-01T18:48:41.674Z,49.87
2022-12-01T18:51:53.669Z,48.78
2022-12-01T18:55:04.664Z,48.04
2022-12-01T18:58:18.491Z,46.97
2022-12-01T19:01:32.208Z,46.25
2022-12-01T19:04:45.457Z,45.87
2022-12-01T19:08:01.037Z,45.37
2022-12-01T19:11:13.045Z,45.48
2022-12-01T19:14:26.092Z,45.23
2022-12-01T19:17:39.408Z,44.96
2022-12-01T19:20:49.594Z,44.98
2022-12-01T19:24:05.108Z,45.12
2022-12-01T19:27:24.158Z,45.14
2022-12-01T19:30:36.346Z,45.37
2022-12-01T19:33:51.413Z,45.55
2022-12-01T19:37:03.087Z,45.62
2022-12-01T19:40:15.589Z,46.25
2022-12-01T19:43:29.440Z,47.40
2022-12-01T19:46:40.635Z,48.65
2022-12-01T19:49:53.239Z,49.70
2022-12-01T19:53:06.059Z,51.24
2022-12-01T19:56:18.365Z,52.93
2022-12-01T19:59:32.011Z,54.05
2022-12-01T20:02:46.002Z,55.26
2022-12-01T20:06:01.033Z,56.34
2022-12-01T20:09:13.847Z,57.04
2022-12-01T20:12:29.273Z,57.54
2022-12-01T20:15:45.539Z,57.51
2022-12-01T20:18:57.426Z,57.42
2022-12-01T20:22:11.584Z,57.46
2022-12-01T20:25:22.453Z,57.30
2022-12-01T20:28:35.926Z,57.34
2022-12-01T20:31:48.653Z,57.75
2022-12-01T20:35:01.773Z,57.92
2022-12-01T20:38:14.760Z,58.47
2022-12-01T20:41:26.760Z,58.51
2022-12-01T20:44:38.678Z,57.99
2022-12-01T20:47:51.804Z,57.77
2022-12-01T20:51:07.069Z,57.28
2022-12-01T20:54:30.194Z,56.94
2022-12-01T20:57:42.663Z,56.37
2022-12-01T21:00:56.248Z,55.75
2022-12-01T21:04:09.960Z,55.39
2022-12-01T21:07:24.825Z,54.70
2022-12-01T21:10:36.802Z,54.42
2022-12-01T21:13:52.688Z,52.97
2022-12-01T21:17:17.796Z,53.08
2022-12-01T21:20:52.022Z,53.29
2022-12-01T21:24:18.044Z,53.46
2022-12-01T21:27:30.561Z,53.71
2022-12-01T21:30:43.724Z,54.13
2022-12-01T21:33:56.613Z,54.54
2022-12-01T21:37:12.810Z,54.29
2022-12-01T21:40:27.895Z,53.91
2022-12-01T21:43:39.795Z,53.47
2022-12-01T21:46:53.018Z,53.48
2022-12-01T21:50:06.660Z,53.61
2022-12-01T21:53:19.690Z,53.42
2022-12-01T21:56:36.395Z,52.94
2022-12-01T21:59:47.669Z,52.72
2022-12-01T22:03:12.068Z,52.30
2022-12-01T22:06:57.448Z,52.66
2022-12-01T22:10:35.513Z,53.12
2022-12-01T22:13:54.739Z,52.40
2022-12-01T22:17:06.732Z,53.05
2022-12-01T22:20:28.616Z,52.79
2022-12-01T22:23:38.939Z,52.86
2022-12-01T22:26:52.377Z,52.91
2022-12-01T22:30:14.310Z,52.03
2022-12-01T22:33:30.188Z,52.16
2022-12-01T22:36:35.919Z,51.84
2022-12-01T22:39:39.508Z,51.36
2022-12-01T22:42:44.688Z,51.64
2022-12-01T22:46:00.356Z,51.51
2022-12-01T22:49:10.121Z,51.89
2022-12-01T22:52:30.213Z,51.28
2022-12-01T22:55:34.970Z,51.38
2022-12-01T22:58:42.000Z,51.12
2022-12-01T23:01:50.428Z,51.48
2022-12-01T23:05:00.039Z,51.34
2022-12-01T23:08:12.103Z,51.50
2022-12-01T23:11:15.853Z,51.22
2022-12-01T23:14:24.195Z,51.00
2022-12-01T23:17:31.094Z,51.27
2022-12-01T23:20:36.008Z,51.36
2022-12-01T23:23:39.342Z,51.83
2022-12-01T23:26:46.860Z,52.15
2022-12-01T23:29:50.133Z,52.71
2022-12-01T23:33:18.331Z,53.64
2022-12-01T23:36:27.032Z,54.58
2022-12-01T23:39:33.372Z,55.06
2022-12-01T23:42:36.714Z,55.90
2022-12-01T23:45:40.507Z,56.42
2022-12-01T23:48:47.860Z,56.47
2022-12-01T23:51:57.958Z,56.80
2022-12-01T23:55:03.081Z,57.25
2022-12-01T23:58:14.267Z,57.47
